createdAt,value
2017-06-26T00:00:45.303Z,71.50
2017-06-26T00:03:13.174Z,71.70
2017-06-26T00:05:40.688Z,71.70
2017-06-26T00:08:08.960Z,71.90
2017-06-26T00:10:36.743Z,72.00
2017-06-26T00:13:05.014Z,72.10
2017-06-26T00:15:33.292Z,73.00
2017-06-26T00:18:01.856Z,72.70
2017-06-26T00:20:29.349Z,72.40
2017-06-26T00:22:56.882Z,72.20
2017-06-26T00:25:24.690Z,72.10
2017-06-26T00:27:52.181Z,72.10
2017-06-26T00:30:19.683Z,72.10
2017-06-26T00:32:47.485Z,72.30
2017-06-26T00:35:14.984Z,72.40
2017-06-26T00:37:42.486Z,72.30
2017-06-26T00:40:10.360Z,72.20
2017-06-26T00:42:37.879Z,72.10
2017-06-26T00:45:05.381Z,71.80
2017-06-26T00:47:33.181Z,71.60
2017-06-26T00:50:00.690Z,71.30
2017-06-26T00:52:28.195Z,71.70
2017-06-26T00:54:55.990Z,72.10
2017-06-26T00:57:23.501Z,72.50
2017-06-26T00:59:51.008Z,72.80
2017-06-26T01:02:18.918Z,73.10
2017-06-26T01:04:46.420Z,73.20
2017-06-26T01:07:13.932Z,73.20
2017-06-26T01:09:41.725Z,73.30
2017-06-26T01:12:09.229Z,73.00
2017-06-26T01:14:36.735Z,73.00
2017-06-26T01:17:04.561Z,74.00
2017-06-26T01:19:32.070Z,73.00
2017-06-26T01:21:59.586Z,72.80
2017-06-26T01:24:27.402Z,72.90
2017-06-26T01:26:54.914Z,73.20
2017-06-26T01:29:23.175Z,73.40
2017-06-26T01:31:51.092Z,73.40
2017-06-26T01:34:18.590Z,73.70
2017-06-26T01:36:46.101Z,73.90
2017-06-26T01:39:13.892Z,74.20
2017-06-26T01:41:41.403Z,74.40
2017-06-26T01:44:08.915Z,74.50
2017-06-26T01:46:36.725Z,74.70
2017-06-26T01:49:04.220Z,74.80
2017-06-26T01:51:31.715Z,74.90
2017-06-26T01:53:59.543Z,74.90
2017-06-26T01:56:27.045Z,74.90
2017-06-26T01:58:54.555Z,74.60
2017-06-26T02:01:22.460Z,74.80
2017-06-26T02:03:49.970Z,73.60
2017-06-26T02:06:17.488Z,73.50
2017-06-26T02:08:45.532Z,73.50
2017-06-26T02:11:13.037Z,73.60
2017-06-26T02:13:41.312Z,73.20
2017-06-26T02:16:09.917Z,73.60
2017-06-26T02:18:37.430Z,73.10
2017-06-26T02:21:04.929Z,73.10
2017-06-26T02:23:33.508Z,73.50
2017-06-26T02:26:01.782Z,73.70
2017-06-26T02:28:30.065Z,73.80
2017-06-26T02:30:57.961Z,73.90
2017-06-26T02:33:25.469Z,74.00
2017-06-26T02:35:52.981Z,74.20
2017-06-26T02:38:20.852Z,74.70
2017-06-26T02:40:48.376Z,75.00
2017-06-26T02:43:15.880Z,75.20
2017-06-26T02:45:43.853Z,75.50
2017-06-26T02:48:11.366Z,75.70
2017-06-26T02:50:38.862Z,75.90
2017-06-26T02:53:06.667Z,76.10
2017-06-26T02:55:34.181Z,76.30
2017-06-26T02:58:01.695Z,76.50
2017-06-26T03:00:29.614Z,76.60
2017-06-26T03:02:57.119Z,76.70
2017-06-26T03:05:24.633Z,76.80
2017-06-26T03:07:52.489Z,77.00
2017-06-26T03:10:20.001Z,77.10
2017-06-26T03:12:47.504Z,77.10
2017-06-26T03:15:15.476Z,77.10
2017-06-26T03:17:42.984Z,77.10
2017-06-26T03:20:10.490Z,77.20
2017-06-26T03:22:38.478Z,77.00
2017-06-26T03:25:05.989Z,76.80
2017-06-26T03:27:34.260Z,77.30
2017-06-26T03:30:02.076Z,76.50
2017-06-26T03:32:29.582Z,76.40
2017-06-26T03:34:57.077Z,76.10
2017-06-26T03:37:24.877Z,75.60
2017-06-26T03:39:52.408Z,75.20
2017-06-26T03:42:19.898Z,74.80
2017-06-26T03:44:47.675Z,74.70
2017-06-26T03:47:15.171Z,74.40
2017-06-26T03:49:43.449Z,73.40
2017-06-26T03:52:12.049Z,72.90
2017-06-26T03:54:39.557Z,73.00
2017-06-26T03:57:07.055Z,73.00
2017-06-26T03:59:35.605Z,73.10
2017-06-26T04:02:03.112Z,73.10
2017-06-26T04:04:30.632Z,72.60
2017-06-26T04:06:58.443Z,72.10
2017-06-26T04:09:25.945Z,72.10
2017-06-26T04:11:53.437Z,71.90
2017-06-26T04:14:22.146Z,71.70
2017-06-26T04:16:49.654Z,71.70
2017-06-26T04:19:17.140Z,71.80
2017-06-26T04:21:45.766Z,71.90
2017-06-26T04:24:13.255Z,71.80
2017-06-26T04:26:40.761Z,71.40
2017-06-26T04:29:08.633Z,71.40
2017-06-26T04:31:36.143Z,71.00
2017-06-26T04:34:03.637Z,70.80
2017-06-26T04:36:31.626Z,70.90
2017-06-26T04:38:59.147Z,71.10
2017-06-26T04:41:26.654Z,70.80
2017-06-26T04:43:54.624Z,70.90
2017-06-26T04:46:22.125Z,71.10
2017-06-26T04:48:49.612Z,72.00
2017-06-26T04:51:17.623Z,71.30
2017-06-26T04:53:45.126Z,71.20
2017-06-26T04:56:12.625Z,71.50
2017-06-26T04:58:40.520Z,71.10
2017-06-26T05:01:08.017Z,70.80
2017-06-26T05:03:35.507Z,70.60
2017-06-26T05:06:03.483Z,70.60
2017-06-26T05:08:30.967Z,70.50
2017-06-26T05:10:58.469Z,69.50
2017-06-26T05:13:27.081Z,68.00
2017-06-26T05:15:54.608Z,68.00
2017-06-26T05:18:22.103Z,67.50
2017-06-26T05:20:49.978Z,67.20
2017-06-26T05:23:17.489Z,66.90
2017-06-26T05:25:45.003Z,66.60
2017-06-26T05:28:12.809Z,66.50
2017-06-26T05:30:40.319Z,66.40
2017-06-26T05:33:07.832Z,67.10
2017-06-26T05:35:35.596Z,66.00
2017-06-26T05:38:03.092Z,65.90
2017-06-26T05:40:30.592Z,65.70
2017-06-26T05:42:58.431Z,65.60
2017-06-26T05:45:25.941Z,65.30
2017-06-26T05:47:53.452Z,65.10
2017-06-26T05:50:21.228Z,64.50
2017-06-26T05:52:48.757Z,64.30
2017-06-26T05:55:16.254Z,64.40
2017-06-26T05:57:44.086Z,64.10
2017-06-26T06:00:11.613Z,63.70
2017-06-26T06:02:39.125Z,63.50
2017-06-26T06:05:06.929Z,63.20
2017-06-26T06:07:34.435Z,63.30
2017-06-26T06:10:01.935Z,63.40
2017-06-26T06:12:29.765Z,63.50
2017-06-26T06:14:57.328Z,62.40
2017-06-26T06:17:24.850Z,62.50
2017-06-26T06:19:52.750Z,62.40
2017-06-26T06:22:20.269Z,62.10
2017-06-26T06:24:48.549Z,61.50
2017-06-26T06:27:16.362Z,62.10
2017-06-26T06:29:43.854Z,61.00
2017-06-26T06:32:11.366Z,60.50
2017-06-26T06:34:39.168Z,60.10
2017-06-26T06:37:06.686Z,59.50
2017-06-26T06:39:34.952Z,59.70
2017-06-26T06:42:03.665Z,59.50
2017-06-26T06:44:31.181Z,59.30
2017-06-26T06:46:59.457Z,58.70
2017-06-26T06:49:27.282Z,58.10
2017-06-26T06:51:54.783Z,57.50
2017-06-26T06:54:22.321Z,57.20
2017-06-26T06:56:50.147Z,56.80
2017-06-26T06:59:17.690Z,56.20
2017-06-26T07:01:45.199Z,56.30
2017-06-26T07:04:13.038Z,56.40
2017-06-26T07:06:40.555Z,56.40
2017-06-26T07:09:08.074Z,56.20
2017-06-26T07:11:35.886Z,56.50
2017-06-26T07:14:03.414Z,56.30
2017-06-26T07:16:30.936Z,56.20
2017-06-26T07:18:58.767Z,56.30
2017-06-26T07:21:26.289Z,56.10
2017-06-26T07:23:53.799Z,56.20
2017-06-26T07:26:22.358Z,56.20
2017-06-26T07:28:49.891Z,56.00
2017-06-26T07:31:17.410Z,56.10
2017-06-26T07:33:46.036Z,55.50
2017-06-26T07:38:32.708Z,55.50
2017-06-26T07:41:00.504Z,54.80
2017-06-26T07:43:28.018Z,54.50
2017-06-26T07:45:55.531Z,54.20
2017-06-26T07:48:23.342Z,54.10
2017-06-26T07:50:50.878Z,54.10
2017-06-26T07:53:18.376Z,53.90
2017-06-26T07:55:47.070Z,53.90
2017-06-26T07:58:15.360Z,53.50
2017-06-26T08:00:43.634Z,53.00
2017-06-26T08:03:11.457Z,53.00
2017-06-26T08:05:38.981Z,52.70
2017-06-26T08:08:06.523Z,52.70
2017-06-26T08:10:34.452Z,52.40
2017-06-26T08:13:01.977Z,52.00
2017-06-26T08:15:29.504Z,52.10
2017-06-26T08:17:58.130Z,51.60
2017-06-26T08:20:25.655Z,51.60
2017-06-26T08:22:53.166Z,51.50
2017-06-26T08:25:21.041Z,51.40
2017-06-26T08:27:48.562Z,50.60
2017-06-26T08:30:16.098Z,50.50
2017-06-26T08:32:44.119Z,50.50
2017-06-26T08:35:11.626Z,50.40
2017-06-26T08:37:39.911Z,50.60
2017-06-26T08:40:07.821Z,50.00
2017-06-26T08:42:35.338Z,50.00
2017-06-26T08:45:02.901Z,49.90
2017-06-26T08:47:30.828Z,49.90
2017-06-26T08:49:58.348Z,50.00
2017-06-26T08:52:25.898Z,49.90
2017-06-26T08:54:53.796Z,49.90
2017-06-26T08:57:21.341Z,49.70
2017-06-26T08:59:48.864Z,49.30
2017-06-26T09:02:16.784Z,49.10
2017-06-26T09:04:44.309Z,49.00
2017-06-26T09:07:11.857Z,49.00
2017-06-26T09:09:39.768Z,48.90
2017-06-26T09:12:07.285Z,49.00
2017-06-26T09:14:35.612Z,49.30
2017-06-26T09:17:03.464Z,49.30
2017-06-26T09:19:30.975Z,49.50
2017-06-26T09:21:58.516Z,49.70
2017-06-26T09:24:26.350Z,49.80
2017-06-26T09:26:53.873Z,50.00
2017-06-26T09:29:21.421Z,50.20
2017-06-26T09:31:49.248Z,50.40
2017-06-26T09:34:16.771Z,50.50
2017-06-26T09:36:44.284Z,50.80
2017-06-26T09:39:12.242Z,51.10
2017-06-26T09:41:39.767Z,51.10
2017-06-26T09:44:07.290Z,51.30
2017-06-26T09:46:35.105Z,51.50
2017-06-26T09:49:02.635Z,51.50
2017-06-26T09:51:30.161Z,51.50
2017-06-26T09:53:57.980Z,51.70
2017-06-26T09:56:25.505Z,51.70
2017-06-26T09:58:53.021Z,51.80
2017-06-26T10:01:20.881Z,52.00
2017-06-26T10:03:48.405Z,52.30
2017-06-26T10:06:15.918Z,52.60
2017-06-26T10:08:43.777Z,52.60
2017-06-26T10:11:11.316Z,52.70
2017-06-26T10:13:38.850Z,53.00
2017-06-26T10:16:06.891Z,53.50
2017-06-26T10:18:34.395Z,53.90
2017-06-26T10:21:01.949Z,54.30
2017-06-26T10:23:29.971Z,54.80
2017-06-26T10:25:57.492Z,55.20
2017-06-26T10:28:25.036Z,55.70
2017-06-26T10:30:52.937Z,56.10
2017-06-26T10:33:20.472Z,56.40
2017-06-26T10:35:48.774Z,56.80
2017-06-26T10:38:16.766Z,56.80
2017-06-26T10:40:44.304Z,57.00
2017-06-26T10:43:11.827Z,57.30
2017-06-26T10:45:39.610Z,57.40
2017-06-26T10:48:07.126Z,57.50
2017-06-26T10:50:34.660Z,57.40
2017-06-26T10:53:02.608Z,57.30
2017-06-26T10:55:30.148Z,57.50
2017-06-26T10:57:58.433Z,57.60
2017-06-26T11:00:26.453Z,57.60
2017-06-26T11:02:53.970Z,57.50
2017-06-26T11:05:22.257Z,57.30
2017-06-26T11:07:50.244Z,57.30
2017-06-26T11:10:17.767Z,57.10
2017-06-26T11:12:46.104Z,57.00
2017-06-26T11:15:13.926Z,57.00
2017-06-26T11:17:41.468Z,56.60
2017-06-26T11:20:10.103Z,56.00
2017-06-26T11:22:37.953Z,55.90
2017-06-26T11:25:05.486Z,55.40
2017-06-26T11:27:33.783Z,53.70
2017-06-26T11:30:01.623Z,53.60
2017-06-26T11:32:29.142Z,52.90
2017-06-26T11:34:56.670Z,52.40
2017-06-26T11:37:24.465Z,51.90
2017-06-26T11:39:52.001Z,51.60
2017-06-26T11:42:19.523Z,51.20
2017-06-26T11:44:47.337Z,51.10
2017-06-26T11:47:15.007Z,50.70
2017-06-26T11:49:42.544Z,50.60
2017-06-26T11:52:10.375Z,50.80
2017-06-26T11:54:37.898Z,51.00
2017-06-26T11:57:05.423Z,51.30
2017-06-26T11:59:33.335Z,51.70
2017-06-26T12:02:00.910Z,52.20
2017-06-26T12:04:28.440Z,52.40
2017-06-26T12:06:56.412Z,52.70
2017-06-26T12:09:23.939Z,52.60
2017-06-26T12:11:52.222Z,52.60
2017-06-26T12:14:20.171Z,52.60
2017-06-26T12:16:47.664Z,52.50
2017-06-26T12:19:15.189Z,52.50
2017-06-26T12:21:43.130Z,52.60
2017-06-26T12:24:10.660Z,52.20
2017-06-26T12:26:38.168Z,51.50
2017-06-26T12:29:05.990Z,50.20
2017-06-26T12:31:33.528Z,49.60
2017-06-26T12:34:01.039Z,48.70
2017-06-26T12:36:29.097Z,48.30
2017-06-26T12:38:56.648Z,48.20
2017-06-26T12:41:24.168Z,47.90
2017-06-26T12:43:52.831Z,47.40
2017-06-26T12:46:20.361Z,47.40
2017-06-26T12:48:47.895Z,46.80
2017-06-26T12:51:15.717Z,46.70
2017-06-26T12:53:43.233Z,46.20
2017-06-26T12:56:10.760Z,45.80
2017-06-26T12:58:38.701Z,45.20
2017-06-26T13:01:06.222Z,44.40
2017-06-26T13:03:33.740Z,43.80
2017-06-26T13:06:02.377Z,43.10
2017-06-26T13:08:29.903Z,43.20
2017-06-26T13:10:57.418Z,43.20
2017-06-26T13:13:25.259Z,43.20
2017-06-26T13:15:52.784Z,43.50
2017-06-26T13:18:20.306Z,44.00
2017-06-26T13:20:48.144Z,44.30
2017-06-26T13:23:15.684Z,44.80
2017-06-26T13:25:43.210Z,45.10
2017-06-26T13:28:11.043Z,45.20
2017-06-26T13:30:38.589Z,44.80
2017-06-26T13:33:06.130Z,44.30
2017-06-26T13:35:34.094Z,44.00
2017-06-26T13:38:01.608Z,43.20
2017-06-26T13:40:29.238Z,42.80
2017-06-26T13:42:57.146Z,42.00
2017-06-26T13:45:24.694Z,41.60
2017-06-26T13:47:52.239Z,41.30
2017-06-26T13:50:20.165Z,41.20
2017-06-26T13:52:47.684Z,40.40
2017-06-26T13:55:15.197Z,40.00
2017-06-26T13:57:43.041Z,38.70
2017-06-26T14:00:10.558Z,38.30
2017-06-26T14:02:38.065Z,38.10
2017-06-26T14:05:06.669Z,37.80
2017-06-26T14:07:34.183Z,37.80
2017-06-26T14:10:01.710Z,38.20
2017-06-26T14:12:29.559Z,38.40
2017-06-26T14:14:57.090Z,39.30
2017-06-26T14:17:24.641Z,39.70
2017-06-26T14:19:52.476Z,40.10
2017-06-26T14:22:20.012Z,40.40
2017-06-26T14:24:47.534Z,40.60
2017-06-26T14:27:15.364Z,40.90
2017-06-26T14:29:42.880Z,41.20
2017-06-26T14:32:11.188Z,41.80
2017-06-26T14:34:39.058Z,41.70
2017-06-26T14:37:06.591Z,42.10
2017-06-26T14:39:34.884Z,42.60
2017-06-26T14:42:02.761Z,42.50
2017-06-26T14:44:30.291Z,43.00
2017-06-26T14:46:58.564Z,43.50
2017-06-26T14:49:26.487Z,43.50
2017-06-26T14:51:54.027Z,43.70
2017-06-26T14:54:21.541Z,44.10
2017-06-26T14:56:50.158Z,44.80
2017-06-26T14:59:17.692Z,44.20
2017-06-26T15:01:45.959Z,43.80
2017-06-26T15:04:13.790Z,43.80
2017-06-26T15:06:41.311Z,43.50
2017-06-26T15:09:08.825Z,43.50
2017-06-26T15:11:36.685Z,43.50
2017-06-26T15:14:04.236Z,43.50
2017-06-26T15:16:31.758Z,43.60
2017-06-26T15:18:59.688Z,43.60
2017-06-26T15:21:27.195Z,43.70
2017-06-26T15:23:55.030Z,44.00
2017-06-26T15:26:23.757Z,44.40
2017-06-26T15:28:51.289Z,44.40
2017-06-26T15:31:18.796Z,44.70
2017-06-26T15:33:46.655Z,44.90
2017-06-26T15:36:14.241Z,44.80
2017-06-26T15:38:41.781Z,45.00
2017-06-26T15:41:09.643Z,45.10
2017-06-26T15:43:37.155Z,45.20
2017-06-26T15:46:05.443Z,45.50
2017-06-26T15:48:33.347Z,45.50
2017-06-26T15:51:00.880Z,45.20
2017-06-26T15:53:28.416Z,44.70
2017-06-26T15:55:56.278Z,44.20
2017-06-26T15:58:23.790Z,43.80
2017-06-26T16:00:51.315Z,44.30
2017-06-26T16:03:19.896Z,43.60
2017-06-26T16:05:47.436Z,43.70
2017-06-26T16:08:14.949Z,43.70
2017-06-26T16:10:42.764Z,43.60
2017-06-26T16:13:10.298Z,43.60
2017-06-26T16:15:37.829Z,44.00
2017-06-26T16:18:05.695Z,44.10
2017-06-26T16:20:33.217Z,44.20
2017-06-26T16:23:01.567Z,44.30
2017-06-26T16:25:29.424Z,44.30
2017-06-26T16:27:56.939Z,44.50
2017-06-26T16:30:24.448Z,44.30
2017-06-26T16:32:52.295Z,44.10
2017-06-26T16:35:19.821Z,43.80
2017-06-26T16:37:47.351Z,43.60
2017-06-26T16:40:15.202Z,42.90
2017-06-26T16:42:42.709Z,42.50
2017-06-26T16:45:11.030Z,41.80
2017-06-26T16:47:38.876Z,41.80
2017-06-26T16:50:06.416Z,41.70
2017-06-26T16:52:33.965Z,41.70
2017-06-26T16:55:02.572Z,42.20
2017-06-26T16:57:30.112Z,41.70
2017-06-26T16:59:58.429Z,41.90
2017-06-26T17:02:26.314Z,41.80
2017-06-26T17:04:53.850Z,41.50
2017-06-26T17:07:21.418Z,41.50
2017-06-26T17:09:49.413Z,41.50
2017-06-26T17:12:16.965Z,41.60
2017-06-26T17:14:44.498Z,41.80
2017-06-26T17:17:12.405Z,42.20
2017-06-26T17:19:39.918Z,42.50
2017-06-26T17:22:07.451Z,42.80
2017-06-26T17:24:35.366Z,43.20
2017-06-26T17:27:02.909Z,43.40
2017-06-26T17:29:30.439Z,43.40
2017-06-26T17:31:58.273Z,43.40
2017-06-26T17:34:25.813Z,43.50
2017-06-26T17:36:53.373Z,43.40
2017-06-26T17:39:21.299Z,43.20
2017-06-26T17:41:48.836Z,42.90
2017-06-26T17:44:16.373Z,42.80
2017-06-26T17:46:44.248Z,42.90
2017-06-26T17:49:11.782Z,43.00
2017-06-26T17:51:39.303Z,43.10
2017-06-26T17:54:07.130Z,43.20
2017-06-26T17:56:34.668Z,43.50
2017-06-26T17:59:02.228Z,43.70
2017-06-26T18:01:30.054Z,43.80
2017-06-26T18:03:57.612Z,44.00
2017-06-26T18:06:25.144Z,44.00
2017-06-26T18:08:52.951Z,44.20
2017-06-26T18:11:20.592Z,44.50
2017-06-26T18:13:48.102Z,44.70
2017-06-26T18:16:16.060Z,44.90
2017-06-26T18:18:43.637Z,45.30
2017-06-26T18:21:11.209Z,45.50
2017-06-26T18:23:39.592Z,45.70
2017-06-26T18:26:07.156Z,45.80
2017-06-26T18:28:34.699Z,46.00
2017-06-26T18:31:02.612Z,46.20
2017-06-26T18:33:30.151Z,46.30
2017-06-26T18:35:57.701Z,46.40
2017-06-26T18:38:25.567Z,46.70
2017-06-26T18:40:53.115Z,46.80
2017-06-26T18:43:20.664Z,46.80
2017-06-26T18:45:48.575Z,47.00
2017-06-26T18:48:16.116Z,47.10
2017-06-26T18:50:43.657Z,47.30
2017-06-26T18:53:11.585Z,47.40
2017-06-26T18:55:39.097Z,47.40
2017-06-26T18:58:06.635Z,47.60
2017-06-26T19:00:34.554Z,47.70
2017-06-26T19:03:02.068Z,47.70
2017-06-26T19:05:29.592Z,47.90
2017-06-26T19:07:57.532Z,47.90
2017-06-26T19:10:25.049Z,48.00
2017-06-26T19:12:52.648Z,48.20
2017-06-26T19:15:20.657Z,48.30
2017-06-26T19:17:48.196Z,48.50
2017-06-26T19:20:15.718Z,48.60
2017-06-26T19:22:43.711Z,48.70
2017-06-26T19:25:11.267Z,48.80
2017-06-26T19:27:38.798Z,49.00
2017-06-26T19:30:06.656Z,49.10
2017-06-26T19:32:34.214Z,49.30
2017-06-26T19:35:01.720Z,49.50
2017-06-26T19:37:29.670Z,50.30
2017-06-26T19:39:57.214Z,49.80
2017-06-26T19:42:24.766Z,49.90
2017-06-26T19:44:52.786Z,50.00
2017-06-26T19:47:20.348Z,50.20
2017-06-26T19:49:47.896Z,50.40
2017-06-26T19:52:15.880Z,50.50
2017-06-26T19:54:43.424Z,50.80
2017-06-26T19:57:10.946Z,51.20
2017-06-26T19:59:39.608Z,51.70
2017-06-26T20:02:07.172Z,51.80
2017-06-26T20:04:34.702Z,51.80
2017-06-26T20:07:02.573Z,52.00
2017-06-26T20:09:30.137Z,52.40
2017-06-26T20:11:57.751Z,52.60
2017-06-26T20:14:25.690Z,52.60
2017-06-26T20:16:53.247Z,53.00
2017-06-26T20:19:20.821Z,53.40
2017-06-26T20:21:48.662Z,53.40
2017-06-26T20:24:16.217Z,53.50
2017-06-26T20:26:43.758Z,53.90
2017-06-26T20:29:11.623Z,54.20
2017-06-26T20:31:39.167Z,54.50
2017-06-26T20:34:06.721Z,54.70
2017-06-26T20:36:34.572Z,54.90
2017-06-26T20:39:02.098Z,55.20
2017-06-26T20:41:29.622Z,55.30
2017-06-26T20:43:57.453Z,55.40
2017-06-26T20:46:24.958Z,55.70
2017-06-26T20:48:52.487Z,56.00
2017-06-26T20:51:21.143Z,56.50
2017-06-26T20:53:48.651Z,56.60
2017-06-26T20:56:16.174Z,56.70
2017-06-26T20:58:43.990Z,57.00
2017-06-26T21:01:11.547Z,57.30
2017-06-26T21:03:39.093Z,57.40
2017-06-26T21:06:06.987Z,57.60
2017-06-26T21:08:34.498Z,57.90
2017-06-26T21:11:02.807Z,58.40
2017-06-26T21:13:30.691Z,58.30
2017-06-26T21:15:58.202Z,58.50
2017-06-26T21:18:26.492Z,58.90
2017-06-26T21:20:55.081Z,59.10
2017-06-26T21:23:22.615Z,59.00
2017-06-26T21:25:50.148Z,59.20
2017-06-26T21:28:17.999Z,59.40
2017-06-26T21:30:45.536Z,59.50
2017-06-26T21:33:13.061Z,59.80
2017-06-26T21:35:41.004Z,59.90
2017-06-26T21:38:08.542Z,60.10
2017-06-26T21:40:36.057Z,60.30
2017-06-26T21:43:04.686Z,60.60
2017-06-26T21:45:32.208Z,60.70
2017-06-26T21:48:00.502Z,60.80
2017-06-26T21:50:28.463Z,60.90
2017-06-26T21:52:55.989Z,61.10
2017-06-26T21:55:23.563Z,61.00
2017-06-26T21:57:51.475Z,61.20
2017-06-26T22:00:18.994Z,61.30
2017-06-26T22:02:46.488Z,61.30
2017-06-26T22:05:14.292Z,61.30
2017-06-26T22:07:41.846Z,61.20
2017-06-26T22:10:09.374Z,61.20
2017-06-26T22:12:37.195Z,61.40
2017-06-26T22:15:04.725Z,61.50
2017-06-26T22:17:32.247Z,61.80
2017-06-26T22:20:00.147Z,62.00
2017-06-26T22:22:27.658Z,62.30
2017-06-26T22:24:55.957Z,63.20
2017-06-26T22:27:23.849Z,62.50
2017-06-26T22:29:51.380Z,62.60
2017-06-26T22:32:18.905Z,62.90
2017-06-26T22:34:46.840Z,63.00
2017-06-26T22:37:14.381Z,63.20
2017-06-26T22:39:41.913Z,63.20
2017-06-26T22:42:10.502Z,64.40
2017-06-26T22:44:38.804Z,64.20
2017-06-26T22:47:06.326Z,63.80
2017-06-26T22:49:34.251Z,64.10
2017-06-26T22:52:01.771Z,64.40
2017-06-26T22:54:29.316Z,64.60
2017-06-26T22:56:57.153Z,64.80
2017-06-26T22:59:24.695Z,65.00
2017-06-26T23:01:52.223Z,65.20
2017-06-26T23:04:20.127Z,65.30
2017-06-26T23:06:47.641Z,65.60
2017-06-26T23:09:15.926Z,66.00
2017-06-26T23:11:44.552Z,66.20
2017-06-26T23:14:12.055Z,66.20
2017-06-26T23:16:39.585Z,66.30
2017-06-26T23:19:07.543Z,66.50
2017-06-26T23:21:35.067Z,66.70
2017-06-26T23:24:03.352Z,66.80
2017-06-26T23:26:31.131Z,66.90
2017-06-26T23:28:58.638Z,67.00
2017-06-26T23:31:26.154Z,67.00
2017-06-26T23:33:54.005Z,67.10
2017-06-26T23:36:21.530Z,67.30
2017-06-26T23:38:49.829Z,67.70
2017-06-26T23:41:17.800Z,67.50
2017-06-26T23:43:46.074Z,67.70
2017-06-26T23:46:14.349Z,67.80
2017-06-26T23:48:42.970Z,67.90
2017-06-26T23:51:10.482Z,67.80
2017-06-26T23:53:37.998Z,67.80
2017-06-26T23:56:05.857Z,67.80
2017-06-26T23:58:33.382Z,67.80
